createdAt,value
2019-05-12T00:02:07.662Z,95052.13
2019-05-12T00:04:33.035Z,95050.94
2019-05-12T00:06:59.701Z,95055.81
2019-05-12T00:09:28.273Z,95053.16
2019-05-12T00:11:52.984Z,95054.34
2019-05-12T00:14:19.658Z,95058.83
2019-05-12T00:16:48.916Z,95051.82
2019-05-12T00:19:12.965Z,95052.46
2019-05-12T00:21:39.961Z,95050.89
2019-05-12T00:24:08.029Z,95054.34
2019-05-12T00:26:32.930Z,95053.10
2019-05-12T00:28:59.589Z,95054.42
2019-05-12T00:31:28.080Z,95055.72
2019-05-12T00:33:52.925Z,95052.83
2019-05-12T00:36:19.556Z,95060.67
2019-05-12T00:38:48.426Z,95054.42
2019-05-12T00:41:12.879Z,95049.55
2019-05-12T00:43:39.527Z,95050.46
2019-05-12T00:46:07.930Z,95046.29
2019-05-12T00:48:32.860Z,95047.98
2019-05-12T00:50:59.556Z,95056.23
2019-05-12T00:53:39.469Z,95057.06
2019-05-12T00:55:52.876Z,95056.43
2019-05-12T00:58:19.846Z,95049.82
2019-05-12T01:00:48.289Z,95056.94
2019-05-12T01:03:12.872Z,95058.28
2019-05-12T01:05:39.541Z,95051.12
2019-05-12T01:08:08.475Z,95052.18
2019-05-12T01:10:32.917Z,95057.82
2019-05-12T01:12:59.569Z,95058.92
2019-05-12T01:15:28.369Z,95055.41
2019-05-12T01:17:52.896Z,95059.72
2019-05-12T01:20:19.674Z,95056.69
2019-05-12T01:22:50.414Z,95062.23
2019-05-12T01:25:12.964Z,95063.08
2019-05-12T01:27:39.611Z,95064.14
2019-05-12T01:30:08.450Z,95064.97
2019-05-12T01:32:32.978Z,95066.16
2019-05-12T01:34:59.617Z,95063.72
2019-05-12T01:37:27.999Z,95066.20
2019-05-12T01:39:52.907Z,95067.69
2019-05-12T01:42:19.600Z,95063.22
2019-05-12T01:44:48.158Z,95068.61
2019-05-12T01:47:12.898Z,95063.09
2019-05-12T01:52:08.578Z,95066.96
2019-05-12T01:54:32.868Z,95063.23
2019-05-12T01:56:59.522Z,95067.42
2019-05-12T01:59:26.169Z,95071.08
2019-05-12T02:01:52.812Z,95069.14
2019-05-12T02:04:19.505Z,95069.47
2019-05-12T02:06:48.400Z,95071.58
2019-05-12T02:09:12.798Z,95063.34
2019-05-12T02:11:39.442Z,95066.33
2019-05-12T02:14:06.133Z,95072.31
2019-05-12T02:16:32.778Z,95073.95
2019-05-12T02:18:59.494Z,95077.91
2019-05-12T02:21:27.985Z,95069.91
2019-05-12T02:23:52.833Z,95067.00
2019-05-12T02:26:19.507Z,95069.52
2019-05-12T02:28:48.042Z,95069.36
2019-05-12T02:31:12.808Z,95072.11
2019-05-12T02:33:39.463Z,95068.48
2019-05-12T02:36:06.144Z,95071.52
2019-05-12T02:38:33.391Z,95072.95
2019-05-12T02:40:59.516Z,95072.66
2019-05-12T02:43:26.156Z,95074.12
2019-05-12T02:45:54.704Z,95076.69
2019-05-12T02:48:19.460Z,95081.48
2019-05-12T02:50:46.101Z,95091.05
2019-05-12T02:53:14.541Z,95086.30
2019-05-12T02:55:39.411Z,95086.47
2019-05-12T02:58:06.560Z,95082.84
2019-05-12T03:00:35.227Z,95080.62
2019-05-12T03:02:59.392Z,95088.56
2019-05-12T03:05:26.040Z,95094.80
2019-05-12T03:07:55.249Z,95091.44
2019-05-12T03:10:19.359Z,95099.34
2019-05-12T03:12:46.038Z,95097.62
2019-05-12T03:15:15.141Z,95092.48
2019-05-12T03:17:39.376Z,95103.01
2019-05-12T03:20:06.094Z,95097.33
2019-05-12T03:22:35.303Z,95104.66
2019-05-12T03:25:11.295Z,95113.84
2019-05-12T03:29:55.194Z,95114.91
2019-05-12T03:32:19.342Z,95123.41
2019-05-12T03:34:47.496Z,95121.64
2019-05-12T03:37:17.909Z,95118.13
2019-05-12T03:39:39.323Z,95111.47
2019-05-12T03:42:06.047Z,95116.27
2019-05-12T03:44:35.272Z,95116.73
2019-05-12T03:46:59.332Z,95117.70
2019-05-12T03:49:26.026Z,95118.34
2019-05-12T03:51:54.332Z,95110.13
2019-05-12T03:54:19.403Z,95112.78
2019-05-12T03:56:46.054Z,95112.05
2019-05-12T03:59:14.943Z,95109.98
2019-05-12T04:01:39.407Z,95113.67
2019-05-12T04:04:06.071Z,95114.31
2019-05-12T04:06:34.626Z,95115.34
2019-05-12T04:09:00.128Z,95119.13
2019-05-12T04:11:26.073Z,95128.27
2019-05-12T04:13:55.064Z,95123.01
2019-05-12T04:16:19.384Z,95123.55
2019-05-12T04:21:15.598Z,95119.04
2019-05-12T04:23:39.328Z,95119.47
2019-05-12T04:26:11.808Z,95125.30
2019-05-12T04:28:35.164Z,95133.45
2019-05-12T04:30:59.353Z,95134.34
2019-05-12T04:33:26.023Z,95140.14
2019-05-12T04:35:55.283Z,95135.89
2019-05-12T04:38:19.312Z,95130.80
2019-05-12T04:43:14.618Z,95137.63
2019-05-12T04:45:39.327Z,95138.96
2019-05-12T04:48:06.471Z,95132.64
2019-05-12T04:50:35.353Z,95134.09
2019-05-12T04:52:59.263Z,95136.69
2019-05-12T04:55:25.951Z,95135.94
2019-05-12T04:57:54.564Z,95136.91
2019-05-12T05:00:19.269Z,95138.30
2019-05-12T05:02:45.916Z,95128.23
2019-05-12T05:05:14.534Z,95131.09
2019-05-12T05:07:39.245Z,95135.34
2019-05-12T05:10:05.884Z,95136.05
2019-05-12T05:12:34.494Z,95129.87
2019-05-12T05:14:59.188Z,95134.09
2019-05-12T05:17:25.877Z,95133.55
2019-05-12T05:19:53.430Z,95122.42
2019-05-12T05:22:19.171Z,95124.94
2019-05-12T05:24:45.809Z,95123.05
2019-05-12T05:27:13.285Z,95124.37
2019-05-12T05:29:39.142Z,95122.52
2019-05-12T05:32:05.788Z,95125.64
2019-05-12T05:34:34.276Z,95122.23
2019-05-12T05:37:01.476Z,95120.98
2019-05-12T05:39:25.860Z,95122.91
2019-05-12T05:41:53.795Z,95130.26
2019-05-12T05:44:19.151Z,95132.75
2019-05-12T05:46:50.048Z,95116.23
2019-05-12T05:49:13.325Z,95116.67
2019-05-12T05:51:39.810Z,95112.61
2019-05-12T05:54:05.816Z,95118.27
2019-05-12T05:56:42.234Z,95121.59
2019-05-12T05:58:59.162Z,95121.37
2019-05-12T06:01:25.812Z,95133.59
2019-05-12T06:03:53.246Z,95127.14
2019-05-12T06:06:19.140Z,95123.97
2019-05-12T06:08:45.791Z,95119.45
2019-05-12T06:11:14.839Z,95120.91
2019-05-12T06:13:40.236Z,95123.48
2019-05-12T06:16:05.881Z,95125.40
2019-05-12T06:18:33.463Z,95124.25
2019-05-12T06:20:59.230Z,95126.53
2019-05-12T06:23:29.054Z,95124.23
2019-05-12T06:25:54.717Z,95122.41
2019-05-12T06:28:19.188Z,95124.77
2019-05-12T06:30:49.521Z,95120.09
2019-05-12T06:33:14.383Z,95121.22
2019-05-12T06:35:42.224Z,95112.84
2019-05-12T06:38:05.795Z,95119.58
2019-05-12T06:40:40.309Z,95122.64
2019-05-12T06:42:59.134Z,95121.58
2019-05-12T06:45:28.370Z,95123.24
2019-05-12T06:47:55.572Z,95113.84
2019-05-12T06:50:19.071Z,95120.58
2019-05-12T06:52:49.045Z,95120.23
2019-05-12T06:55:14.558Z,95118.91
2019-05-12T06:57:39.987Z,95121.64
2019-05-12T07:00:05.732Z,95120.17
2019-05-12T07:02:37.031Z,95119.14
2019-05-12T07:04:59.648Z,95118.98
2019-05-12T07:07:27.624Z,95113.69
2019-05-12T07:09:54.970Z,95117.86
2019-05-12T07:12:18.995Z,95116.08
2019-05-12T07:14:48.934Z,95113.10
2019-05-12T07:17:14.492Z,95118.02
2019-05-12T07:19:39.004Z,95114.59
2019-05-12T07:22:18.869Z,95100.53
2019-05-12T07:24:34.183Z,95099.27
2019-05-12T07:27:04.476Z,95094.39
2019-05-12T07:29:25.631Z,95099.16
2019-05-12T07:31:53.732Z,95091.02
2019-05-12T07:34:18.956Z,95088.50
2019-05-12T07:39:13.618Z,95079.97
2019-05-12T07:41:42.383Z,95079.02
2019-05-12T07:44:05.256Z,95080.84
2019-05-12T07:48:58.186Z,95073.34
2019-05-12T07:51:24.834Z,95070.14
2019-05-12T07:53:55.425Z,95067.47
2019-05-12T07:56:19.505Z,95063.28
2019-05-12T07:58:47.478Z,95063.52
2019-05-12T08:01:11.441Z,95058.88
2019-05-12T08:06:04.813Z,95059.73
2019-05-12T08:08:31.426Z,95056.42
2019-05-12T08:10:58.061Z,95049.78
2019-05-12T08:13:24.714Z,95055.66
2019-05-12T08:15:53.996Z,95055.75
2019-05-12T08:18:18.009Z,95047.39
2019-05-12T08:20:44.652Z,95045.11
2019-05-12T08:23:11.289Z,95052.69
2019-05-12T08:25:37.973Z,95043.52
2019-05-12T08:28:15.154Z,95039.29
2019-05-12T08:30:33.109Z,95039.00
2019-05-12T08:33:07.225Z,95038.20
2019-05-12T08:35:29.302Z,95034.66
2019-05-12T08:37:51.324Z,95023.53
2019-05-12T08:40:17.970Z,95018.97
2019-05-12T08:42:44.647Z,95025.22
2019-05-12T08:45:15.159Z,95022.20
2019-05-12T08:47:38.986Z,95033.59
2019-05-12T08:50:04.961Z,95025.47
2019-05-12T08:52:39.292Z,95024.89
2019-05-12T08:54:57.914Z,95024.63
2019-05-12T08:57:24.570Z,95023.37
2019-05-12T08:59:54.691Z,95023.94
2019-05-12T09:04:51.478Z,95022.86
2019-05-12T09:07:13.667Z,95015.84
2019-05-12T09:09:37.813Z,95015.16
2019-05-12T09:14:33.509Z,95022.36
2019-05-12T09:17:02.505Z,95019.68
2019-05-12T09:19:27.117Z,95020.44
2019-05-12T09:21:51.069Z,95021.97
2019-05-12T09:24:21.604Z,95017.53
2019-05-12T09:26:44.407Z,95010.50
2019-05-12T09:29:11.042Z,95011.68
2019-05-12T09:31:37.696Z,95007.58
2019-05-12T09:34:11.484Z,95005.91
2019-05-12T09:36:30.992Z,95008.73
2019-05-12T09:39:01.498Z,95003.13
2019-05-12T09:41:24.350Z,95002.03
2019-05-12T09:43:53.048Z,95003.09
2019-05-12T09:46:17.813Z,95014.44
2019-05-12T09:48:50.907Z,95015.08
2019-05-12T09:51:13.178Z,95014.24
2019-05-12T09:53:42.750Z,95008.66
2019-05-12T09:56:04.638Z,95002.98
2019-05-12T09:58:31.150Z,95008.22
2019-05-12T10:00:57.786Z,95011.69
2019-05-12T10:05:53.298Z,95005.35
2019-05-12T10:08:17.834Z,95004.62
2019-05-12T10:10:46.794Z,95004.03
2019-05-12T10:13:13.625Z,95007.13
2019-05-12T10:15:37.751Z,95001.42
2019-05-12T10:18:09.466Z,95002.56
2019-05-12T10:20:35.306Z,95001.80
2019-05-12T10:22:57.711Z,94998.67
2019-05-12T10:25:28.481Z,94989.81
2019-05-12T10:27:53.151Z,94989.70
2019-05-12T10:30:17.829Z,94984.50
2019-05-12T10:35:12.449Z,94985.44
2019-05-12T10:37:37.718Z,94990.23
2019-05-12T10:40:04.361Z,94985.06
2019-05-12T10:42:31.055Z,94984.19
2019-05-12T10:44:57.743Z,94977.45
2019-05-12T10:47:24.381Z,94976.92
2019-05-12T10:49:53.511Z,94980.60
2019-05-12T10:52:17.683Z,94979.70
2019-05-12T10:54:44.312Z,94980.69
2019-05-12T10:57:10.994Z,94975.34
2019-05-12T10:59:38.670Z,94968.05
2019-05-12T11:02:04.309Z,94977.67
2019-05-12T11:04:36.861Z,94981.63
2019-05-12T11:06:57.615Z,94979.22
2019-05-12T11:09:27.344Z,94973.98
2019-05-12T11:11:53.815Z,94972.33
2019-05-12T11:16:44.658Z,94963.42
2019-05-12T11:19:10.931Z,94969.49
2019-05-12T11:21:37.594Z,94962.86
2019-05-12T11:24:04.221Z,94969.71
2019-05-12T11:26:30.902Z,94955.83
2019-05-12T11:28:57.540Z,94958.53
2019-05-12T11:31:24.405Z,94959.39
2019-05-12T11:33:50.864Z,94964.70
2019-05-12T11:38:44.486Z,94971.05
2019-05-12T11:41:16.217Z,94960.83
2019-05-12T11:43:37.505Z,94961.95
2019-05-12T11:46:04.156Z,94961.81
2019-05-12T11:48:30.859Z,94958.94
2019-05-12T11:50:57.499Z,94962.98
2019-05-12T11:53:30.313Z,94953.26
2019-05-12T11:55:50.831Z,94960.77
2019-05-12T11:58:17.540Z,94955.61
2019-05-12T12:00:44.268Z,94955.86
2019-05-12T12:03:12.956Z,94953.02
2019-05-12T12:05:38.388Z,94948.72
2019-05-12T12:08:04.212Z,94948.69
2019-05-12T12:10:37.535Z,94952.45
2019-05-12T12:12:57.556Z,94949.22
2019-05-12T12:15:26.315Z,94949.61
2019-05-12T12:17:50.841Z,94951.68
2019-05-12T12:20:22.549Z,94952.53
2019-05-12T12:22:44.159Z,94948.88
2019-05-12T12:25:13.096Z,94945.09
2019-05-12T12:27:37.461Z,94941.17
2019-05-12T12:30:16.012Z,94941.36
2019-05-12T12:32:30.835Z,94941.58
2019-05-12T12:35:00.817Z,94944.34
2019-05-12T12:37:25.673Z,94939.14
2019-05-12T12:39:50.834Z,94927.00
2019-05-12T12:42:17.493Z,94935.41
2019-05-12T12:44:44.141Z,94927.34
2019-05-12T12:47:10.792Z,94918.35
2019-05-12T12:49:39.842Z,94921.28
2019-05-12T12:52:04.125Z,94926.67
2019-05-12T12:54:30.810Z,94924.42
2019-05-12T12:57:00.259Z,94916.91
2019-05-12T12:59:24.149Z,94923.10
2019-05-12T13:01:50.744Z,94928.12
2019-05-12T13:04:17.439Z,94927.59
2019-05-12T13:06:44.084Z,94936.97
2019-05-12T13:09:18.258Z,94930.03
2019-05-12T13:11:37.408Z,94931.45
2019-05-12T13:14:04.196Z,94927.91
2019-05-12T13:16:30.784Z,94923.08
2019-05-12T13:21:24.082Z,94919.64
2019-05-12T13:23:51.175Z,94912.98
2019-05-12T13:26:17.393Z,94919.43
2019-05-12T13:28:45.425Z,94912.18
2019-05-12T13:31:13.644Z,94926.08
2019-05-12T13:33:37.341Z,94921.25
2019-05-12T13:36:04.441Z,94920.72
2019-05-12T13:38:35.692Z,94923.80
2019-05-12T13:40:57.315Z,94920.37
2019-05-12T13:43:24.002Z,94918.25
2019-05-12T13:45:50.746Z,94916.75
2019-05-12T13:48:19.763Z,94930.79
2019-05-12T13:50:44.069Z,94921.41
2019-05-12T13:53:10.797Z,94926.73
2019-05-12T13:55:39.409Z,94919.64
2019-05-12T14:00:30.797Z,94921.52
2019-05-12T14:03:04.738Z,94923.99
2019-05-12T14:05:24.219Z,94926.84
2019-05-12T14:07:55.604Z,94923.54
2019-05-12T14:10:17.406Z,94922.95
2019-05-12T14:12:44.200Z,94917.15
2019-05-12T14:15:10.750Z,94923.94
2019-05-12T14:17:40.461Z,94920.09
2019-05-12T14:20:04.176Z,94921.02
2019-05-12T14:22:30.752Z,94928.94
2019-05-12T14:24:57.403Z,94933.98
2019-05-12T14:27:28.517Z,94932.19
2019-05-12T14:29:50.749Z,94941.18
2019-05-12T14:32:19.072Z,94941.34
2019-05-12T14:34:44.052Z,94941.98
2019-05-12T14:37:10.705Z,94938.81
2019-05-12T14:39:40.253Z,94939.75
2019-05-12T14:42:04.376Z,94938.08
2019-05-12T14:44:35.263Z,94941.75
2019-05-12T14:46:57.429Z,94948.02
2019-05-12T14:49:28.512Z,94945.77
2019-05-12T14:51:50.761Z,94947.55
2019-05-12T14:54:17.416Z,94939.97
2019-05-12T14:56:52.747Z,94938.81
2019-05-12T14:59:10.775Z,94938.06
2019-05-12T15:01:52.276Z,94932.53
2019-05-12T15:04:05.216Z,94938.50
2019-05-12T15:06:30.814Z,94944.16
2019-05-12T15:08:57.466Z,94939.59
2019-05-12T15:11:24.141Z,94943.48
2019-05-12T15:13:50.782Z,94933.31
2019-05-12T15:16:17.472Z,94943.30
2019-05-12T15:18:48.309Z,94940.40
2019-05-12T15:21:10.810Z,94950.53
2019-05-12T15:23:37.625Z,94959.72
2019-05-12T15:26:04.381Z,94955.61
2019-05-12T15:28:30.764Z,94956.36
2019-05-12T15:33:26.386Z,94949.80
2019-05-12T15:35:54.755Z,94955.19
2019-05-12T15:38:19.690Z,94948.49
2019-05-12T15:40:46.329Z,94943.66
2019-05-12T15:43:13.913Z,94945.36
2019-05-12T15:45:39.646Z,94949.58
2019-05-12T15:48:06.330Z,94951.16
2019-05-12T15:50:34.251Z,94955.34
2019-05-12T15:52:59.673Z,94949.66
2019-05-12T15:55:32.651Z,94952.10
2019-05-12T15:57:52.971Z,94954.31
2019-05-12T16:00:19.659Z,94954.63
2019-05-12T16:02:46.308Z,94955.04
2019-05-12T16:05:14.460Z,94958.56
2019-05-12T16:07:39.858Z,94959.12
2019-05-12T16:10:06.289Z,94959.03
2019-05-12T16:12:34.331Z,94964.30
2019-05-12T16:15:00.724Z,94955.27
2019-05-12T16:17:27.380Z,94961.59
2019-05-12T16:19:54.183Z,94959.50
2019-05-12T16:22:20.682Z,94957.56
2019-05-12T16:24:48.963Z,94956.44
2019-05-12T16:27:14.161Z,94955.12
2019-05-12T16:29:45.604Z,94958.91
2019-05-12T16:32:07.348Z,94949.61
2019-05-12T16:34:36.148Z,94953.00
2019-05-12T16:37:00.702Z,94955.77
2019-05-12T16:39:30.488Z,94954.77
2019-05-12T16:41:54.485Z,94953.05
2019-05-12T16:44:22.958Z,94948.30
2019-05-12T16:46:47.362Z,94948.22
2019-05-12T16:49:14.083Z,94948.86
2019-05-12T16:51:40.694Z,94949.40
2019-05-12T16:56:34.048Z,94952.24
2019-05-12T16:59:00.706Z,94957.70
2019-05-12T17:01:29.300Z,94956.52
2019-05-12T17:03:54.672Z,94960.14
2019-05-12T17:06:20.724Z,94959.04
2019-05-12T17:08:47.420Z,94958.66
2019-05-12T17:11:27.162Z,94961.62
2019-05-12T17:13:40.709Z,94973.30
2019-05-12T17:16:07.403Z,94982.24
2019-05-12T17:18:34.222Z,94970.94
2019-05-12T17:21:00.714Z,94978.78
2019-05-12T17:23:27.353Z,94982.33
2019-05-12T17:25:54.038Z,94978.52
2019-05-12T17:28:20.678Z,94987.77
2019-05-12T17:30:47.387Z,94982.69
2019-05-12T17:33:22.338Z,94988.51
2019-05-12T17:38:13.938Z,94988.80
2019-05-12T17:40:34.042Z,94990.12
2019-05-12T17:43:06.694Z,94989.22
2019-05-12T17:47:56.933Z,94988.80
2019-05-12T17:50:20.662Z,94999.09
2019-05-12T17:52:50.367Z,94990.69
2019-05-12T17:55:14.629Z,94989.05
2019-05-12T17:57:40.599Z,94995.02
2019-05-12T18:00:10.594Z,94998.97
2019-05-12T18:02:34.324Z,95003.80
2019-05-12T18:05:01.289Z,94999.50
2019-05-12T18:07:27.216Z,95010.11
2019-05-12T18:09:56.741Z,95008.31
2019-05-12T18:12:20.528Z,95013.44
2019-05-12T18:14:52.240Z,95021.17
2019-05-12T18:17:14.341Z,95020.00
2019-05-12T18:19:40.513Z,95015.73
2019-05-12T18:22:09.412Z,95017.31
2019-05-12T18:24:34.439Z,95014.95
2019-05-12T18:27:05.028Z,95016.95
2019-05-12T18:29:27.161Z,95020.47
2019-05-12T18:31:55.622Z,95024.31
2019-05-12T18:34:20.455Z,95025.07
2019-05-12T18:36:48.963Z,95024.27
2019-05-12T18:39:15.238Z,95024.23
2019-05-12T18:41:40.466Z,95023.00
2019-05-12T18:44:07.143Z,95021.94
2019-05-12T18:49:03.091Z,95026.89
2019-05-12T18:51:27.114Z,95022.96
2019-05-12T18:53:56.028Z,95027.75
2019-05-12T18:56:21.938Z,95021.03
2019-05-12T18:58:47.117Z,95020.27
2019-05-12T19:01:14.185Z,95027.08
2019-05-12T19:03:50.297Z,95026.47
2019-05-12T19:06:07.204Z,95028.96
2019-05-12T19:08:33.841Z,95025.04
2019-05-12T19:11:15.951Z,95029.19
2019-05-12T19:13:27.138Z,95029.11
2019-05-12T19:16:02.627Z,95029.98
2019-05-12T19:18:24.360Z,95031.07
2019-05-12T19:20:48.158Z,95029.34
2019-05-12T19:23:14.315Z,95032.62
2019-05-12T19:25:41.018Z,95039.37
2019-05-12T19:28:10.507Z,95028.58
2019-05-12T19:30:34.490Z,95026.47
2019-05-12T19:33:06.477Z,95030.35
2019-05-12T19:37:54.029Z,95027.11
2019-05-12T19:40:20.377Z,95024.63
2019-05-12T19:42:47.075Z,95030.20
2019-05-12T19:45:21.114Z,95026.20
2019-05-12T19:47:40.405Z,95028.72
2019-05-12T19:50:11.936Z,95031.55
2019-05-12T19:52:33.738Z,95032.64
2019-05-12T19:55:03.789Z,95032.53
2019-05-12T19:57:30.027Z,95026.95
2019-05-12T19:59:56.683Z,95023.94
2019-05-12T20:02:23.773Z,95021.79
2019-05-12T20:04:52.060Z,95026.53
2019-05-12T20:09:48.391Z,95032.20
2019-05-12T20:12:15.645Z,95029.59
2019-05-12T20:14:36.654Z,95030.87
2019-05-12T20:17:03.306Z,95028.02
2019-05-12T20:19:29.942Z,95032.46
2019-05-12T20:21:56.589Z,95032.67
2019-05-12T20:24:23.825Z,95025.30
2019-05-12T20:26:49.880Z,95034.33
2019-05-12T20:29:16.525Z,95032.02
2019-05-12T20:31:48.247Z,95029.15
2019-05-12T20:34:11.067Z,95032.45
2019-05-12T20:36:36.467Z,95035.97
2019-05-12T20:41:29.764Z,95037.31
2019-05-12T20:43:56.462Z,95038.52
2019-05-12T20:46:25.766Z,95036.63
2019-05-12T20:48:49.848Z,95031.19
2019-05-12T20:51:20.065Z,95035.44
2019-05-12T20:53:43.695Z,95033.66
2019-05-12T20:56:12.153Z,95036.11
2019-05-12T20:58:43.014Z,95025.38
2019-05-12T21:01:05.210Z,95022.06
2019-05-12T21:03:29.789Z,95027.06
2019-05-12T21:06:00.198Z,95024.64
2019-05-12T21:08:23.673Z,95029.00
2019-05-12T21:10:54.133Z,95024.64
2019-05-12T21:13:20.424Z,95023.79
2019-05-12T21:15:46.425Z,95032.58
2019-05-12T21:18:14.678Z,95036.72
2019-05-12T21:20:39.704Z,95035.14
2019-05-12T21:23:06.384Z,95033.81
2019-05-12T21:28:02.695Z,95021.98
2019-05-12T21:30:26.312Z,95029.64
2019-05-12T21:33:01.140Z,95018.50
2019-05-12T21:35:22.625Z,95030.58
2019-05-12T21:37:48.481Z,95025.25
2019-05-12T21:40:14.875Z,95025.23
2019-05-12T21:42:39.585Z,95024.73
2019-05-12T21:45:06.308Z,95021.53
2019-05-12T21:47:34.069Z,95013.48
2019-05-12T21:49:59.637Z,95011.19
2019-05-12T21:52:26.285Z,95012.41
2019-05-12T21:54:55.444Z,95003.07
2019-05-12T21:57:27.468Z,95000.58
2019-05-12T21:59:46.312Z,95002.83
2019-05-12T22:02:14.716Z,95001.76
2019-05-12T22:04:41.686Z,95014.11
2019-05-12T22:07:07.023Z,95013.27
2019-05-12T22:09:41.779Z,95010.70
2019-05-12T22:12:03.709Z,95018.44
2019-05-12T22:14:30.502Z,95015.84
2019-05-12T22:16:55.566Z,95016.84
2019-05-12T22:19:22.204Z,95020.28
2019-05-12T22:21:49.582Z,95023.28
2019-05-12T22:24:15.578Z,95017.58
2019-05-12T22:26:45.966Z,95015.66
2019-05-12T22:29:08.943Z,95014.31
2019-05-12T22:31:38.671Z,95019.80
2019-05-12T22:36:30.183Z,95018.88
2019-05-12T22:39:00.869Z,95011.16
2019-05-12T22:41:24.232Z,95009.89
2019-05-12T22:46:16.723Z,95008.94
2019-05-12T22:48:42.498Z,95009.18
2019-05-12T22:51:17.497Z,95010.18
2019-05-12T22:53:35.851Z,95011.53
2019-05-12T22:56:11.893Z,95008.28
2019-05-12T22:58:29.172Z,95004.95
2019-05-12T23:01:00.642Z,94997.47
2019-05-12T23:03:22.480Z,94997.80
2019-05-12T23:05:50.755Z,95005.43
2019-05-12T23:08:15.798Z,95007.95
2019-05-12T23:10:51.341Z,95009.98
2019-05-12T23:15:38.729Z,95009.61
2019-05-12T23:18:04.315Z,95006.77
2019-05-12T23:20:31.116Z,95013.20
2019-05-12T23:22:55.791Z,95012.58
2019-05-12T23:25:24.488Z,95014.36
2019-05-12T23:27:49.135Z,95012.09
2019-05-12T23:30:16.026Z,95018.02
2019-05-12T23:32:51.109Z,95022.09
2019-05-12T23:35:09.121Z,95014.66
2019-05-12T23:37:40.091Z,95017.72
2019-05-12T23:40:04.340Z,95022.17
2019-05-12T23:42:29.080Z,95030.42
2019-05-12T23:44:55.780Z,95026.72
2019-05-12T23:47:23.803Z,95026.92
2019-05-12T23:49:49.097Z,95027.04
2019-05-12T23:52:15.735Z,95025.05
2019-05-12T23:57:09.034Z,95027.89
2019-05-12T23:59:35.672Z,95033.43
